Time;durP1;ratioP1;P1;durP2;ratioP2;P2;SDS_P1;SDS_P2;PMS_P1;PMS_P2;Temp;Humidity;BMP_temperature;BMP_pressure;BME280_temperature;BME280_humidity;BME280_pressure;Samples;Min_cycle;Max_cycle;Signal;HPM_P1;HPM_P2
2021/12/26 00:01:24;;;;;;;18.52;11.73;;;1.00;99.90;;;;;;4958844;28;20027;-52
2021/12/26 00:03:51;;;;;;;18.50;12.00;;;1.00;99.90;;;;;;4961146;29;20023;-55
2021/12/26 00:06:21;;;;;;;16.35;12.15;;;1.00;99.90;;;;;;4944061;29;20054;-53
2021/12/26 00:08:48;;;;;;;18.20;12.35;;;1.00;99.90;;;;;;4971142;23;20101;-58
2021/12/26 00:11:14;;;;;;;18.98;12.27;;;1.00;99.90;;;;;;4953145;29;20052;-48
2021/12/26 00:13:41;;;;;;;19.90;12.63;;;1.00;99.90;;;;;;4954875;29;20797;-51
2021/12/26 00:16:07;;;;;;;19.15;11.57;;;1.00;99.90;;;;;;4954989;29;20074;-49
2021/12/26 00:18:34;;;;;;;19.25;12.77;;;1.00;99.90;;;;;;4954646;28;20027;-49
2021/12/26 00:21:00;;;;;;;17.92;12.07;;;1.00;99.90;;;;;;4954549;28;20030;-47
2021/12/26 00:23:25;;;;;;;15.88;11.68;;;1.00;99.90;;;;;;4954493;28;20035;-49
2021/12/26 00:25:51;;;;;;;17.25;12.68;;;0.90;99.90;;;;;;4954697;28;20501;-51
2021/12/26 00:28:17;;;;;;;18.80;12.30;;;1.00;99.90;;;;;;4937355;29;20027;-50
2021/12/26 00:30:44;;;;;;;38.53;14.38;;;1.00;99.90;;;;;;4937015;29;20035;-48
2021/12/26 00:33:10;;;;;;;17.50;11.88;;;1.00;99.90;;;;;;4954801;29;20035;-56
2021/12/26 00:35:35;;;;;;;17.38;11.63;;;1.10;99.90;;;;;;4954722;29;20028;-53
2021/12/26 00:38:01;;;;;;;17.73;12.23;;;1.10;99.90;;;;;;4954418;28;20023;-51
2021/12/26 00:40:27;;;;;;;16.73;10.75;;;1.10;99.90;;;;;;4954075;29;20082;-51
2021/12/26 00:42:53;;;;;;;14.70;10.93;;;1.10;99.90;;;;;;4954307;29;20051;-51
2021/12/26 00:45:19;;;;;;;17.48;12.18;;;1.10;99.90;;;;;;4953153;28;20024;-50
2021/12/26 00:47:45;;;;;;;16.10;11.85;;;1.00;99.90;;;;;;4937248;28;20023;-51
2021/12/26 00:50:14;;;;;;;17.75;11.02;;;1.00;99.90;;;;;;4952916;29;20543;-52
2021/12/26 00:52:39;;;;;;;19.70;12.45;;;1.00;99.90;;;;;;4936798;29;20498;-48
2021/12/26 00:55:07;;;;;;;17.63;12.20;;;1.00;99.90;;;;;;4954443;29;20024;-52
2021/12/26 00:57:33;;;;;;;17.50;12.02;;;1.00;99.90;;;;;;4953205;28;20027;-47
2021/12/26 00:59:59;;;;;;;21.05;12.45;;;1.10;99.90;;;;;;4955100;29;20030;-53
2021/12/26 01:02:24;;;;;;;16.30;11.65;;;1.10;99.90;;;;;;4955134;29;20487;-48
2021/12/26 01:04:50;;;;;;;16.95;10.95;;;1.10;99.90;;;;;;4955125;29;20030;-47
2021/12/26 01:07:34;;;;;;;16.67;11.45;;;1.10;99.90;;;;;;4954229;29;20055;-47
2021/12/26 01:10:00;;;;;;;15.93;10.73;;;1.00;99.90;;;;;;4936423;29;20243;-50
2021/12/26 01:12:27;;;;;;;19.80;12.25;;;1.10;99.90;;;;;;4953805;29;20135;-52
2021/12/26 01:15:03;;;;;;;21.38;12.35;;;1.20;99.90;;;;;;4953982;29;20034;-47
2021/12/26 01:17:29;;;;;;;16.40;11.50;;;1.10;99.90;;;;;;4953859;28;20038;-50
2021/12/26 01:19:55;;;;;;;16.23;11.57;;;1.20;99.90;;;;;;4953452;29;20019;-49
2021/12/26 01:22:23;;;;;;;16.77;10.73;;;1.10;99.90;;;;;;4953920;29;20056;-53
2021/12/26 01:24:55;;;;;;;19.83;12.07;;;1.20;99.90;;;;;;4953594;29;20086;-51
2021/12/26 01:27:25;;;;;;;17.17;12.00;;;1.20;99.90;;;;;;4953677;29;20102;-48
2021/12/26 01:29:51;;;;;;;16.10;11.30;;;1.20;99.90;;;;;;4953304;28;20027;-50
2021/12/26 01:32:17;;;;;;;15.25;11.65;;;1.20;99.90;;;;;;4953715;29;20027;-50
2021/12/26 01:34:44;;;;;;;16.02;11.25;;;1.20;99.90;;;;;;4953589;28;20555;-50
2021/12/26 01:37:09;;;;;;;17.23;10.43;;;1.20;99.90;;;;;;4953495;29;20036;-50
2021/12/26 01:39:35;;;;;;;15.57;11.70;;;1.10;99.90;;;;;;4953232;28;20038;-49
2021/12/26 01:42:02;;;;;;;16.60;11.65;;;1.10;99.90;;;;;;4953344;29;20122;-47
2021/12/26 01:44:30;;;;;;;18.98;11.40;;;1.10;99.90;;;;;;4953807;29;20547;-50
2021/12/26 01:46:56;;;;;;;18.27;11.40;;;1.20;99.90;;;;;;4953690;28;20031;-52
2021/12/26 01:49:25;;;;;;;15.40;11.60;;;1.20;99.90;;;;;;4953051;28;20463;-52
2021/12/26 01:51:54;;;;;;;17.98;12.15;;;1.20;99.90;;;;;;4953056;29;20023;-47
2021/12/26 01:54:32;;;;;;;18.65;11.65;;;1.20;99.90;;;;;;4953357;29;20038;-54
2021/12/26 01:57:02;;;;;;;18.42;12.10;;;1.20;99.90;;;;;;4953336;29;20030;-52
2021/12/26 01:59:29;;;;;;;17.77;11.13;;;1.20;99.90;;;;;;4951691;29;20523;-51
2021/12/26 02:01:56;;;;;;;16.10;11.45;;;1.20;99.90;;;;;;4953311;29;20472;-54
2021/12/26 02:04:26;;;;;;;16.65;12.07;;;1.20;99.90;;;;;;4936308;29;20446;-49
2021/12/26 02:06:51;;;;;;;16.25;11.88;;;1.20;99.90;;;;;;4936394;29;20034;-49
2021/12/26 02:09:17;;;;;;;21.15;12.73;;;1.20;99.90;;;;;;4953290;28;20036;-54
2021/12/26 02:11:42;;;;;;;16.83;10.90;;;1.30;99.90;;;;;;4953782;28;20032;-54
2021/12/26 02:14:08;;;;;;;17.58;12.07;;;1.30;99.90;;;;;;4953603;29;20039;-54
2021/12/26 02:16:34;;;;;;;18.30;11.63;;;1.30;99.90;;;;;;4953668;29;20031;-54
2021/12/26 02:19:01;;;;;;;16.90;11.60;;;1.40;99.90;;;;;;4936081;29;20031;-53
2021/12/26 02:21:52;;;;;;;18.23;11.90;;;1.40;99.90;;;;;;4953390;29;20027;-48
2021/12/26 02:24:24;;;;;;;17.63;11.82;;;1.40;99.90;;;;;;4953039;28;20106;-48
2021/12/26 02:29:34;;;;;;;18.10;11.55;;;1.40;99.90;;;;;;4952732;28;20042;-53
2021/12/26 02:31:59;;;;;;;16.45;11.40;;;1.40;99.90;;;;;;4953398;29;20031;-52
2021/12/26 02:34:25;;;;;;;17.58;10.45;;;1.30;99.90;;;;;;4953088;29;20039;-52
2021/12/26 02:36:50;;;;;;;19.35;12.30;;;1.30;99.90;;;;;;4953139;29;20455;-51
2021/12/26 02:39:16;;;;;;;17.15;11.30;;;1.40;99.90;;;;;;4952565;28;20384;-51
2021/12/26 02:41:43;;;;;;;16.77;10.60;;;1.40;99.90;;;;;;4952936;28;20412;-49
2021/12/26 02:44:09;;;;;;;16.38;11.20;;;1.40;99.90;;;;;;4953251;28;20027;-50
2021/12/26 02:46:34;;;;;;;15.60;11.05;;;1.30;99.90;;;;;;4951748;28;20026;-52
2021/12/26 02:49:00;;;;;;;19.45;11.63;;;1.40;99.90;;;;;;4956787;28;20027;-49
2021/12/26 02:51:26;;;;;;;16.00;11.65;;;1.30;99.90;;;;;;4955831;28;20059;-48
2021/12/26 02:53:51;;;;;;;17.58;11.60;;;1.40;99.90;;;;;;4956818;28;20494;-49
2021/12/26 02:56:18;;;;;;;16.75;11.40;;;1.40;99.90;;;;;;4956422;29;20407;-48
2021/12/26 02:58:44;;;;;;;22.35;11.80;;;1.40;99.90;;;;;;4956363;28;20155;-48
2021/12/26 03:01:22;;;;;;;19.65;11.93;;;1.30;99.90;;;;;;4956225;28;20031;-49
2021/12/26 03:03:47;;;;;;;18.38;11.65;;;1.30;99.90;;;;;;4956415;29;20102;-51
2021/12/26 03:06:24;;;;;;;17.45;11.30;;;1.30;99.90;;;;;;4956391;28;20046;-48
2021/12/26 03:08:51;;;;;;;14.75;10.75;;;1.30;99.90;;;;;;4956331;28;20085;-48
2021/12/26 03:11:17;;;;;;;14.20;10.75;;;1.40;99.90;;;;;;4956253;29;20035;-49
2021/12/26 03:13:43;;;;;;;16.83;11.18;;;1.40;99.90;;;;;;4956176;29;20085;-51
2021/12/26 03:16:09;;;;;;;17.10;11.90;;;1.40;99.90;;;;;;4954839;29;20034;-49
2021/12/26 03:18:34;;;;;;;14.02;10.82;;;1.50;99.90;;;;;;4955856;28;20031;-49
2021/12/26 03:21:00;;;;;;;15.50;10.57;;;1.50;99.90;;;;;;4955593;28;20036;-52
2021/12/26 03:23:27;;;;;;;17.73;11.82;;;1.50;99.90;;;;;;4955923;29;20680;-49
2021/12/26 03:26:01;;;;;;;17.10;11.63;;;1.50;99.90;;;;;;4954767;29;20480;-54
2021/12/26 03:28:28;;;;;;;15.50;10.65;;;1.60;99.90;;;;;;4955971;28;20023;-48
2021/12/26 03:30:54;;;;;;;15.68;11.13;;;1.50;99.90;;;;;;4956034;28;20035;-50
2021/12/26 03:33:21;;;;;;;17.38;11.85;;;1.50;99.90;;;;;;4956505;29;20105;-49
2021/12/26 03:35:47;;;;;;;18.33;12.27;;;1.50;99.90;;;;;;4956310;28;20027;-48
2021/12/26 03:38:14;;;;;;;17.42;11.95;;;1.40;99.90;;;;;;4956524;28;20451;-49
2021/12/26 03:40:40;;;;;;;21.40;12.25;;;1.30;99.90;;;;;;4955979;28;20031;-51
2021/12/26 03:43:06;;;;;;;15.32;11.18;;;1.30;99.90;;;;;;4955874;28;20043;-49
2021/12/26 03:45:33;;;;;;;19.80;10.80;;;1.40;99.90;;;;;;4958601;28;20019;-49
2021/12/26 03:47:59;;;;;;;19.40;11.55;;;1.40;99.90;;;;;;4957220;28;20106;-50
2021/12/26 03:50:28;;;;;;;16.42;11.32;;;1.40;99.90;;;;;;4955577;29;20110;-49
2021/12/26 03:52:57;;;;;;;16.63;11.00;;;1.40;99.90;;;;;;4955179;28;20028;-49
2021/12/26 03:55:25;;;;;;;19.27;11.50;;;1.40;99.90;;;;;;4955567;28;20406;-53
2021/12/26 03:57:51;;;;;;;16.63;11.60;;;1.40;99.90;;;;;;4938084;28;20453;-48
2021/12/26 04:00:17;;;;;;;17.75;11.15;;;1.30;99.90;;;;;;4954723;29;20023;-57
2021/12/26 04:02:43;;;;;;;17.10;11.07;;;1.30;99.90;;;;;;4955945;28;20035;-51
2021/12/26 04:05:12;;;;;;;18.23;11.77;;;1.30;99.90;;;;;;4938078;29;20376;-49
2021/12/26 04:07:38;;;;;;;16.65;11.27;;;1.30;99.90;;;;;;4938103;28;20023;-47
2021/12/26 04:10:05;;;;;;;18.38;11.57;;;1.40;99.90;;;;;;4954753;29;20034;-54
2021/12/26 04:12:35;;;;;;;16.02;11.02;;;1.40;99.90;;;;;;4955070;28;20047;-52
2021/12/26 04:15:04;;;;;;;16.33;11.13;;;1.40;99.90;;;;;;4953816;28;20023;-56
2021/12/26 04:17:29;;;;;;;17.38;11.32;;;1.40;99.90;;;;;;4954846;28;20032;-55
2021/12/26 04:19:55;;;;;;;16.42;11.30;;;1.40;99.90;;;;;;4958356;29;20038;-48
2021/12/26 04:22:20;;;;;;;15.43;10.70;;;1.40;99.90;;;;;;4954055;28;20510;-50
2021/12/26 04:24:46;;;;;;;15.55;11.43;;;1.50;99.90;;;;;;4953900;29;20372;-47
2021/12/26 04:27:11;;;;;;;18.23;11.95;;;1.50;99.90;;;;;;4937863;29;20034;-50
2021/12/26 04:29:37;;;;;;;18.08;10.43;;;1.50;99.90;;;;;;4953551;29;20146;-49
2021/12/26 04:32:03;;;;;;;16.95;10.93;;;1.50;99.90;;;;;;4955030;28;20558;-50
2021/12/26 04:34:29;;;;;;;18.42;12.00;;;1.50;99.90;;;;;;4954954;28;20494;-51
2021/12/26 04:36:54;;;;;;;17.92;11.65;;;1.50;99.90;;;;;;4954921;29;20035;-52
2021/12/26 04:39:20;;;;;;;20.65;11.50;;;1.60;99.90;;;;;;4953381;29;20034;-52
2021/12/26 04:41:46;;;;;;;17.25;10.75;;;1.50;99.90;;;;;;4954731;28;20395;-51
2021/12/26 04:44:13;;;;;;;16.92;11.98;;;1.60;99.90;;;;;;4954698;29;20035;-55
2021/12/26 04:46:38;;;;;;;18.15;11.77;;;1.50;99.90;;;;;;4954831;29;20023;-53
2021/12/26 04:49:04;;;;;;;17.52;12.38;;;1.50;99.90;;;;;;4937159;29;20110;-48
2021/12/26 04:51:30;;;;;;;20.23;12.13;;;1.40;99.90;;;;;;4937228;29;20126;-49
2021/12/26 04:53:55;;;;;;;18.88;12.10;;;1.40;99.90;;;;;;4953299;29;20031;-50
2021/12/26 04:56:21;;;;;;;17.15;11.35;;;1.30;99.90;;;;;;4954538;29;20027;-56
2021/12/26 04:58:46;;;;;;;18.65;11.90;;;1.40;99.90;;;;;;4937255;29;20031;-47
2021/12/26 05:01:12;;;;;;;16.17;11.60;;;1.40;99.90;;;;;;4952914;29;20024;-48
2021/12/26 05:03:39;;;;;;;20.13;12.15;;;1.40;99.90;;;;;;4954148;28;20034;-52
2021/12/26 05:06:05;;;;;;;19.25;11.80;;;1.40;99.90;;;;;;4954444;28;20392;-54
2021/12/26 05:08:30;;;;;;;16.30;11.00;;;1.40;99.90;;;;;;4954140;28;20101;-51
2021/12/26 05:10:56;;;;;;;16.88;10.95;;;1.40;99.90;;;;;;4936647;29;20031;-52
2021/12/26 05:13:22;;;;;;;17.92;12.30;;;1.40;99.90;;;;;;4954693;29;20058;-56
2021/12/26 05:15:48;;;;;;;21.80;12.60;;;1.40;99.90;;;;;;4937730;29;20054;-54
2021/12/26 05:18:14;;;;;;;19.65;12.73;;;1.40;99.90;;;;;;4937086;29;20101;-52
2021/12/26 05:20:39;;;;;;;19.05;12.38;;;1.40;99.90;;;;;;4936983;29;20024;-49
2021/12/26 05:23:05;;;;;;;19.67;12.27;;;1.40;99.90;;;;;;4954251;29;20028;-49
2021/12/26 05:25:31;;;;;;;19.20;11.23;;;1.40;99.90;;;;;;4954211;28;20034;-55
2021/12/26 05:27:57;;;;;;;23.70;14.38;;;1.40;99.90;;;;;;4936654;29;20042;-50
2021/12/26 05:30:26;;;;;;;18.52;11.60;;;1.40;99.90;;;;;;4952558;28;20031;-53
2021/12/26 05:32:52;;;;;;;20.17;11.75;;;1.50;99.90;;;;;;4953858;29;20055;-48
2021/12/26 05:35:19;;;;;;;17.88;12.55;;;1.50;99.90;;;;;;4936856;29;20065;-50
2021/12/26 05:37:45;;;;;;;16.55;11.75;;;1.50;99.90;;;;;;4954004;28;20082;-52
2021/12/26 05:40:12;;;;;;;19.02;11.60;;;1.50;99.90;;;;;;4936597;29;20027;-50
2021/12/26 05:42:39;;;;;;;22.38;12.15;;;1.40;99.90;;;;;;4953818;28;20027;-50
2021/12/26 05:45:07;;;;;;;19.70;11.88;;;1.40;99.90;;;;;;4952523;29;20147;-49
2021/12/26 05:47:33;;;;;;;17.20;11.40;;;1.40;99.90;;;;;;4953642;28;20029;-49
2021/12/26 05:50:00;;;;;;;18.85;11.52;;;1.50;99.90;;;;;;4953548;29;20027;-51
2021/12/26 05:52:26;;;;;;;17.17;10.57;;;1.50;99.90;;;;;;4953122;28;20479;-55
2021/12/26 05:54:52;;;;;;;18.38;11.95;;;1.40;99.90;;;;;;4953672;29;20113;-53
2021/12/26 05:57:18;;;;;;;21.40;12.48;;;1.40;99.90;;;;;;4953517;29;20082;-52
2021/12/26 05:59:44;;;;;;;17.65;11.32;;;1.40;99.90;;;;;;4953168;28;20058;-51
2021/12/26 06:02:10;;;;;;;18.27;12.43;;;1.40;99.90;;;;;;4953288;29;20380;-52
2021/12/26 06:04:36;;;;;;;20.90;14.10;;;1.40;99.90;;;;;;4953284;29;20035;-49
2021/12/26 06:07:02;;;;;;;15.98;11.05;;;1.50;99.90;;;;;;4953264;29;20023;-51
2021/12/26 06:09:27;;;;;;;19.00;11.45;;;1.50;99.90;;;;;;4984973;23;20125;-51
2021/12/26 06:11:53;;;;;;;16.00;11.00;;;1.40;99.90;;;;;;4961853;28;20023;-54
2021/12/26 06:14:18;;;;;;;17.83;11.57;;;1.40;99.90;;;;;;4978763;28;20487;-54
2021/12/26 06:16:44;;;;;;;20.35;12.50;;;1.40;99.90;;;;;;4979700;28;20483;-51
2021/12/26 06:19:09;;;;;;;20.05;11.63;;;1.40;99.90;;;;;;4978118;28;20027;-52
2021/12/26 06:21:35;;;;;;;18.92;11.95;;;1.40;99.90;;;;;;4979129;28;20038;-57
2021/12/26 06:24:01;;;;;;;19.38;11.48;;;1.50;99.90;;;;;;4982501;28;20031;-52
2021/12/26 06:26:27;;;;;;;20.13;11.45;;;1.50;99.90;;;;;;4982856;28;20038;-51
2021/12/26 06:28:53;;;;;;;19.55;12.20;;;1.50;99.90;;;;;;4965234;28;20023;-53
2021/12/26 06:31:19;;;;;;;17.60;12.05;;;1.60;99.90;;;;;;4982233;28;20050;-51
2021/12/26 06:33:46;;;;;;;18.30;12.90;;;1.60;99.90;;;;;;4982484;28;20052;-54
2021/12/26 06:36:12;;;;;;;17.90;12.13;;;1.50;99.90;;;;;;4965120;28;20508;-55
2021/12/26 06:38:39;;;;;;;19.63;12.60;;;1.50;99.90;;;;;;4982328;28;20049;-55
2021/12/26 06:41:06;;;;;;;18.77;11.85;;;1.60;99.90;;;;;;4981576;28;20430;-55
2021/12/26 06:43:32;;;;;;;17.00;11.32;;;1.60;99.90;;;;;;4981371;28;20033;-52
2021/12/26 06:45:57;;;;;;;17.67;11.45;;;1.60;99.90;;;;;;4981664;28;20031;-55
2021/12/26 06:48:23;;;;;;;20.27;12.80;;;1.50;99.90;;;;;;4964416;28;20027;-53
2021/12/26 06:50:49;;;;;;;16.42;11.65;;;1.50;99.90;;;;;;4963671;28;20031;-58
2021/12/26 06:53:16;;;;;;;17.63;12.48;;;1.50;99.90;;;;;;4963332;28;20505;-56
2021/12/26 06:55:42;;;;;;;17.48;11.40;;;1.50;99.90;;;;;;4981126;28;20042;-51
2021/12/26 06:58:08;;;;;;;17.95;11.57;;;1.50;99.90;;;;;;4963460;28;20027;-54
2021/12/26 07:00:34;;;;;;;20.08;12.32;;;1.50;99.90;;;;;;4981087;28;20067;-54
2021/12/26 07:02:59;;;;;;;18.45;11.55;;;1.50;99.90;;;;;;4981167;28;20023;-54
2021/12/26 07:05:25;;;;;;;21.50;13.02;;;1.50;99.90;;;;;;4980768;28;20077;-56
2021/12/26 07:07:51;;;;;;;18.25;12.50;;;1.40;99.90;;;;;;4964353;28;20030;-55
2021/12/26 07:10:17;;;;;;;17.60;11.20;;;1.40;99.90;;;;;;4980958;28;20031;-56
2021/12/26 07:12:44;;;;;;;20.30;12.75;;;1.40;99.90;;;;;;4981742;28;20038;-56
2021/12/26 07:15:11;;;;;;;19.10;12.32;;;1.50;99.90;;;;;;4980929;28;20019;-53
2021/12/26 07:17:37;;;;;;;20.55;11.60;;;1.40;99.90;;;;;;4963376;28;20093;-52
2021/12/26 07:20:05;;;;;;;18.48;12.27;;;1.40;99.90;;;;;;4964126;28;20047;-56
2021/12/26 07:22:30;;;;;;;16.77;11.18;;;1.50;99.90;;;;;;4981442;28;20387;-52
2021/12/26 07:24:56;;;;;;;18.38;11.60;;;1.40;99.90;;;;;;4964530;28;20110;-51
2021/12/26 07:27:22;;;;;;;18.30;11.93;;;1.50;99.90;;;;;;4964378;28;20015;-52
2021/12/26 07:29:48;;;;;;;21.80;12.65;;;1.40;99.90;;;;;;4963957;28;20031;-55
2021/12/26 07:32:13;;;;;;;17.50;12.07;;;1.50;99.90;;;;;;4980661;28;20058;-52
2021/12/26 07:34:40;;;;;;;19.33;11.80;;;1.50;99.90;;;;;;4980783;28;20058;-56
2021/12/26 07:37:05;;;;;;;21.42;13.18;;;1.50;99.90;;;;;;4980672;28;20159;-52
2021/12/26 07:39:31;;;;;;;19.42;12.45;;;1.50;99.90;;;;;;4981253;28;20499;-55
2021/12/26 07:41:57;;;;;;;18.40;12.00;;;1.50;99.90;;;;;;4981348;28;20178;-54
2021/12/26 07:44:22;;;;;;;18.33;12.43;;;1.40;99.90;;;;;;4964515;28;20031;-48
2021/12/26 07:46:49;;;;;;;18.13;12.15;;;1.40;99.90;;;;;;4981654;28;20027;-54
2021/12/26 07:49:16;;;;;;;18.85;12.13;;;1.40;99.90;;;;;;4981266;28;20101;-52
2021/12/26 07:51:43;;;;;;;21.40;12.30;;;1.40;99.90;;;;;;4980386;28;20094;-56
2021/12/26 07:54:12;;;;;;;17.63;11.30;;;1.40;99.90;;;;;;4981151;28;20022;-54
2021/12/26 07:56:37;;;;;;;19.92;11.75;;;1.40;99.90;;;;;;4981949;28;20113;-56
2021/12/26 07:59:03;;;;;;;17.85;12.18;;;1.50;99.90;;;;;;4980919;28;20506;-50
2021/12/26 08:01:28;;;;;;;17.50;11.02;;;1.50;99.90;;;;;;4963470;28;20475;-53
2021/12/26 08:03:55;;;;;;;17.38;11.48;;;1.60;99.90;;;;;;4963177;28;20027;-55
2021/12/26 08:06:20;;;;;;;15.63;10.93;;;1.50;99.90;;;;;;4980463;28;20018;-54
2021/12/26 08:08:46;;;;;;;17.35;10.98;;;1.60;99.90;;;;;;4972021;28;20029;-54
2021/12/26 08:11:13;;;;;;;20.98;11.38;;;1.60;99.90;;;;;;4964453;28;20031;-53
2021/12/26 08:13:38;;;;;;;19.08;11.25;;;1.60;99.90;;;;;;4955987;29;20028;-50
2021/12/26 08:16:05;;;;;;;17.17;11.75;;;1.70;99.90;;;;;;4955793;28;20146;-49
2021/12/26 08:18:30;;;;;;;17.95;11.57;;;1.70;99.90;;;;;;4955658;28;20044;-51
2021/12/26 08:20:56;;;;;;;18.38;11.82;;;1.70;99.90;;;;;;4961916;28;20034;-51
2021/12/26 08:23:21;;;;;;;17.98;11.32;;;1.70;99.90;;;;;;4956091;28;20031;-54
2021/12/26 08:25:47;;;;;;;19.20;11.13;;;1.70;99.90;;;;;;4950059;28;20058;-54
2021/12/26 08:28:14;;;;;;;19.83;11.63;;;1.80;99.90;;;;;;4954560;28;20066;-51
2021/12/26 08:30:41;;;;;;;17.92;10.80;;;1.80;99.90;;;;;;4959978;28;20027;-55
2021/12/26 08:33:07;;;;;;;16.50;10.63;;;1.80;99.90;;;;;;4973795;28;20375;-54
2021/12/26 08:35:34;;;;;;;18.67;11.45;;;1.70;99.90;;;;;;4972202;28;20161;-54
2021/12/26 08:38:01;;;;;;;23.38;13.75;;;1.70;99.90;;;;;;4960328;28;20039;-52
2021/12/26 08:40:27;;;;;;;21.25;11.95;;;1.70;99.90;;;;;;4964903;28;20109;-48
2021/12/26 08:42:52;;;;;;;19.83;12.45;;;1.70;99.90;;;;;;4955517;28;20035;-53
2021/12/26 08:45:18;;;;;;;20.67;11.88;;;1.70;99.90;;;;;;4969327;28;20513;-50
2021/12/26 08:47:44;;;;;;;21.15;12.63;;;1.70;99.90;;;;;;4973456;28;20030;-52
2021/12/26 08:50:11;;;;;;;17.73;11.80;;;1.60;99.90;;;;;;4973511;28;20497;-55
2021/12/26 08:52:38;;;;;;;23.58;12.13;;;1.60;99.90;;;;;;4979987;28;20041;-54
2021/12/26 08:55:04;;;;;;;20.25;12.80;;;1.70;99.90;;;;;;4981959;28;20030;-49
2021/12/26 08:57:32;;;;;;;20.02;12.75;;;1.60;99.90;;;;;;4977406;28;20041;-53
2021/12/26 08:59:57;;;;;;;19.30;11.85;;;1.60;99.90;;;;;;4973157;28;20034;-53
2021/12/26 09:02:24;;;;;;;18.48;11.40;;;1.60;99.90;;;;;;4973245;28;20097;-50
2021/12/26 09:04:49;;;;;;;17.55;12.20;;;1.70;99.90;;;;;;4973428;28;20114;-54
2021/12/26 09:07:15;;;;;;;18.23;11.02;;;1.70;99.90;;;;;;4973146;28;20105;-51
2021/12/26 09:09:42;;;;;;;20.95;13.10;;;1.70;99.90;;;;;;4972718;28;20522;-53
2021/12/26 09:12:08;;;;;;;20.25;12.90;;;1.70;99.90;;;;;;4973204;28;20394;-51
2021/12/26 09:14:34;;;;;;;20.35;11.90;;;1.70;99.90;;;;;;4973226;28;20062;-52
2021/12/26 09:17:00;;;;;;;22.67;13.32;;;1.70;99.90;;;;;;4955778;28;20069;-54
2021/12/26 09:19:28;;;;;;;21.88;13.07;;;1.70;99.90;;;;;;4972861;28;20035;-50
2021/12/26 09:21:55;;;;;;;22.88;13.48;;;1.70;99.90;;;;;;4972886;28;20081;-49
2021/12/26 09:24:20;;;;;;;21.38;13.05;;;1.70;99.90;;;;;;4973119;28;20023;-52
2021/12/26 09:26:46;;;;;;;26.05;12.60;;;1.70;99.90;;;;;;4973105;28;20475;-51
2021/12/26 09:29:12;;;;;;;18.00;11.55;;;1.70;99.90;;;;;;4972818;28;20023;-53
2021/12/26 09:31:38;;;;;;;21.88;13.98;;;1.80;99.90;;;;;;4973019;28;20398;-52
2021/12/26 09:34:03;;;;;;;19.02;12.05;;;1.80;99.90;;;;;;4972935;28;20030;-52
2021/12/26 09:36:29;;;;;;;17.92;11.77;;;1.90;99.90;;;;;;4968431;28;20070;-49
2021/12/26 09:38:55;;;;;;;22.25;13.15;;;1.90;99.90;;;;;;4976845;28;20039;-57
2021/12/26 09:41:21;;;;;;;22.70;13.30;;;1.80;99.90;;;;;;4961310;28;20035;-50
2021/12/26 09:43:47;;;;;;;23.55;13.80;;;1.80;99.90;;;;;;4954446;28;20051;-54
2021/12/26 09:46:12;;;;;;;21.50;13.23;;;1.90;99.90;;;;;;4953762;28;20019;-50
2021/12/26 09:48:38;;;;;;;18.95;12.48;;;1.90;99.90;;;;;;4954461;28;20023;-51
2021/12/26 09:51:04;;;;;;;20.27;12.23;;;2.00;99.90;;;;;;4953160;28;20027;-52
2021/12/26 09:53:44;;;;;;;20.02;12.73;;;2.10;99.90;;;;;;4955855;28;20059;-48
2021/12/26 09:56:10;;;;;;;21.40;13.48;;;2.10;99.90;;;;;;4972711;28;20026;-50
2021/12/26 09:58:54;;;;;;;24.60;14.02;;;2.00;99.90;;;;;;4973277;28;20034;-51
2021/12/26 10:01:37;;;;;;;20.73;12.38;;;2.00;99.90;;;;;;4957269;28;20028;-49
2021/12/26 10:04:16;;;;;;;22.15;13.27;;;2.10;99.90;;;;;;4964968;28;20027;-48
2021/12/26 10:06:42;;;;;;;23.05;12.98;;;2.10;99.90;;;;;;4976530;28;20066;-50
2021/12/26 10:09:09;;;;;;;23.40;13.07;;;2.20;99.90;;;;;;4974777;28;20035;-50
2021/12/26 10:11:38;;;;;;;29.02;14.25;;;2.20;99.90;;;;;;4976263;28;20058;-52
2021/12/26 10:14:06;;;;;;;24.25;14.57;;;2.20;99.90;;;;;;4958268;28;20439;-52
2021/12/26 10:16:40;;;;;;;18.58;12.65;;;2.30;99.90;;;;;;4958407;28;20459;-50
2021/12/26 10:19:07;;;;;;;22.40;14.00;;;2.20;99.90;;;;;;4958364;28;20031;-47
2021/12/26 10:21:51;;;;;;;24.45;13.32;;;2.20;99.90;;;;;;4966362;28;20102;-45
2021/12/26 10:24:22;;;;;;;22.58;13.90;;;2.20;99.90;;;;;;4956428;29;20527;-54
2021/12/26 10:26:51;;;;;;;20.70;13.68;;;2.10;99.90;;;;;;4955895;28;20122;-53
2021/12/26 10:29:36;;;;;;;21.27;13.60;;;2.10;99.90;;;;;;4955968;28;20025;-52
2021/12/26 10:32:18;;;;;;;24.05;14.65;;;2.20;99.90;;;;;;4978642;28;20034;-50
2021/12/26 10:34:48;;;;;;;25.73;14.75;;;2.20;99.90;;;;;;4978200;28;20046;-47
2021/12/26 10:37:23;;;;;;;27.70;14.55;;;2.20;99.90;;;;;;4967176;28;20041;-50
2021/12/26 10:39:59;;;;;;;25.80;14.52;;;2.10;99.90;;;;;;4956044;29;20042;-50
2021/12/26 10:42:30;;;;;;;23.73;15.02;;;2.10;99.90;;;;;;4957110;28;20038;-52
2021/12/26 10:44:58;;;;;;;28.52;16.17;;;2.20;99.90;;;;;;4957131;28;20051;-50
2021/12/26 10:47:30;;;;;;;34.30;17.83;;;2.20;99.90;;;;;;4965713;28;20376;-52
2021/12/26 10:49:57;;;;;;;26.33;15.13;;;2.20;99.90;;;;;;4975411;28;20041;-49
2021/12/26 10:52:23;;;;;;;30.00;16.25;;;2.10;99.90;;;;;;4974391;28;20053;-49
2021/12/26 10:54:56;;;;;;;30.63;16.60;;;2.10;99.90;;;;;;4974733;28;20018;-54
2021/12/26 10:57:28;;;;;;;32.72;16.70;;;2.10;99.90;;;;;;4968188;28;20058;-53
2021/12/26 11:00:13;;;;;;;27.98;15.43;;;2.20;99.90;;;;;;4968909;28;20038;-49
2021/12/26 11:02:41;;;;;;;28.20;15.20;;;2.20;99.90;;;;;;4969263;28;20037;-52
2021/12/26 11:05:11;;;;;;;30.42;16.85;;;2.30;99.90;;;;;;4963273;28;20034;-55
2021/12/26 11:07:44;;;;;;;26.05;15.40;;;2.20;99.90;;;;;;4974123;28;20031;-53
2021/12/26 11:10:17;;;;;;;27.25;14.48;;;2.30;99.90;;;;;;4958130;28;20358;-53
2021/12/26 11:12:46;;;;;;;30.15;15.88;;;2.30;99.90;;;;;;4955557;29;20011;-53
2021/12/26 11:15:13;;;;;;;28.38;14.77;;;2.30;99.90;;;;;;4961597;28;20047;-52
2021/12/26 11:17:46;;;;;;;29.85;16.52;;;2.30;99.90;;;;;;4975199;28;20020;-51
2021/12/26 11:20:31;;;;;;;28.88;16.50;;;2.30;99.90;;;;;;4999713;28;20036;-49
2021/12/26 11:22:58;;;;;;;36.03;17.70;;;2.30;99.90;;;;;;4972625;28;20038;-50
2021/12/26 11:25:25;;;;;;;33.30;16.73;;;2.30;99.90;;;;;;4955385;29;20032;-53
2021/12/26 11:27:51;;;;;;;27.45;15.82;;;2.30;99.90;;;;;;4957965;28;20038;-61
2021/12/26 11:30:18;;;;;;;32.13;17.73;;;2.40;99.90;;;;;;4969258;28;20434;-55
2021/12/26 11:32:44;;;;;;;28.95;16.20;;;2.40;99.90;;;;;;4973563;28;20538;-49
2021/12/26 11:35:10;;;;;;;29.02;16.35;;;2.40;99.90;;;;;;4957314;28;20094;-53
2021/12/26 11:37:37;;;;;;;30.10;16.50;;;2.40;99.90;;;;;;4968480;28;20128;-50
2021/12/26 11:40:08;;;;;;;29.05;16.15;;;2.40;99.90;;;;;;4961767;28;20019;-53
2021/12/26 11:42:57;;;;;;;30.38;16.88;;;2.40;99.90;;;;;;4956631;28;20494;-49
2021/12/26 11:45:45;;;;;;;31.15;17.13;;;2.40;99.90;;;;;;4956550;28;20027;-46
2021/12/26 11:48:27;;;;;;;28.60;16.00;;;2.40;99.90;;;;;;4954742;29;20039;-49
2021/12/26 11:51:14;;;;;;;33.40;17.83;;;2.40;99.90;;;;;;4954358;28;20027;-51
2021/12/26 11:53:59;;;;;;;29.30;17.23;;;2.40;99.90;;;;;;4960335;28;20029;-47
2021/12/26 11:56:37;;;;;;;32.57;15.43;;;2.50;99.90;;;;;;4958175;28;20074;-50
2021/12/26 11:59:47;;;;;;;27.73;17.13;;;2.50;99.90;;;;;;4956459;28;20031;-48
2021/12/26 12:02:22;;;;;;;30.25;16.80;;;2.50;99.90;;;;;;4953765;28;20033;-54
2021/12/26 12:05:10;;;;;;;29.65;16.45;;;2.50;99.90;;;;;;4974086;28;20102;-53
2021/12/26 12:07:58;;;;;;;29.40;15.45;;;2.60;99.90;;;;;;4970969;28;20067;-49
2021/12/26 12:10:33;;;;;;;29.88;16.13;;;2.70;99.90;;;;;;4973471;28;20078;-50
2021/12/26 12:13:00;;;;;;;31.15;16.00;;;2.60;99.90;;;;;;4954727;28;20407;-49
2021/12/26 12:15:44;;;;;;;30.83;17.63;;;2.60;99.90;;;;;;4937801;28;20027;-51
2021/12/26 12:18:12;;;;;;;30.10;16.38;;;2.60;99.90;;;;;;4954583;29;20031;-47
2021/12/26 12:20:38;;;;;;;30.42;17.15;;;2.60;99.90;;;;;;4955147;28;20038;-49
2021/12/26 12:23:04;;;;;;;32.95;17.58;;;2.50;99.90;;;;;;4949445;29;20487;-47
2021/12/26 12:25:41;;;;;;;31.13;17.00;;;2.60;99.90;;;;;;4956116;28;20027;-49
2021/12/26 12:28:20;;;;;;;31.88;16.05;;;2.60;99.90;;;;;;4974410;28;20056;-49
2021/12/26 12:30:53;;;;;;;31.83;16.30;;;2.60;99.90;;;;;;4948792;29;20117;-48
2021/12/26 12:33:32;;;;;;;29.17;16.50;;;2.70;99.90;;;;;;4954450;29;20217;-49
2021/12/26 12:36:05;;;;;;;30.45;16.42;;;2.70;99.90;;;;;;4958157;28;20105;-50
2021/12/26 12:38:31;;;;;;;28.33;16.40;;;2.70;99.90;;;;;;4955118;28;20055;-53
2021/12/26 12:40:58;;;;;;;30.63;16.08;;;2.70;99.90;;;;;;4948105;28;20062;-48
2021/12/26 12:43:26;;;;;;;30.90;16.98;;;2.70;99.90;;;;;;4973633;28;20030;-52